sensor_id;sensor_type;location;lat;lon;timestamp;pressure;altitude;pressure_sealevel;temperature;humidity
48015;BME280;33780;51.034;7.120;2023-03-01T00:00:53;102148.53;;;0.76;58.25
48015;BME280;33780;51.034;7.120;2023-03-01T00:03:18;102156.50;;;0.73;57.90
48015;BME280;33780;51.034;7.120;2023-03-01T00:05:47;102154.78;;;0.72;58.20
48015;BME280;33780;51.034;7.120;2023-03-01T00:08:12;102146.91;;;0.69;58.24
48015;BME280;33780;51.034;7.120;2023-03-01T00:10:38;102160.13;;;0.68;58.59
48015;BME280;33780;51.034;7.120;2023-03-01T00:13:03;102151.41;;;0.64;58.28
48015;BME280;33780;51.034;7.120;2023-03-01T00:15:30;102143.59;;;0.61;58.29
48015;BME280;33780;51.034;7.120;2023-03-01T00:17:56;102145.44;;;0.57;58.08
48015;BME280;33780;51.034;7.120;2023-03-01T00:20:22;102145.50;;;0.54;58.24
48015;BME280;33780;51.034;7.120;2023-03-01T00:22:47;102149.00;;;0.53;58.35
48015;BME280;33780;51.034;7.120;2023-03-01T00:25:12;102142.88;;;0.53;58.13
48015;BME280;33780;51.034;7.120;2023-03-01T00:27:38;102142.94;;;0.50;59.07
48015;BME280;33780;51.034;7.120;2023-03-01T00:30:03;102137.75;;;0.47;58.58
48015;BME280;33780;51.034;7.120;2023-03-01T00:32:29;102146.56;;;0.44;58.39
48015;BME280;33780;51.034;7.120;2023-03-01T00:34:54;102136.06;;;0.43;58.36
48015;BME280;33780;51.034;7.120;2023-03-01T00:37:23;102131.72;;;0.42;58.81
48015;BME280;33780;51.034;7.120;2023-03-01T00:39:49;102143.16;;;0.41;58.73
48015;BME280;33780;51.034;7.120;2023-03-01T00:42:14;102134.41;;;0.39;58.66
48015;BME280;33780;51.034;7.120;2023-03-01T00:44:39;102132.72;;;0.36;59.00
48015;BME280;33780;51.034;7.120;2023-03-01T00:47:05;102131.81;;;0.36;58.67
48015;BME280;33780;51.034;7.120;2023-03-01T00:49:30;102133.63;;;0.34;59.01
48015;BME280;33780;51.034;7.120;2023-03-01T00:51:55;102126.69;;;0.29;58.70
48015;BME280;33780;51.034;7.120;2023-03-01T00:54:21;102131.97;;;0.29;59.14
48015;BME280;33780;51.034;7.120;2023-03-01T00:56:46;102132.03;;;0.26;59.00
48015;BME280;33780;51.034;7.120;2023-03-01T00:59:11;102131.19;;;0.24;58.94
48015;BME280;33780;51.034;7.120;2023-03-01T01:01:37;102131.22;;;0.23;59.10
48015;BME280;33780;51.034;7.120;2023-03-01T01:04:05;102130.41;;;0.21;59.19
48015;BME280;33780;51.034;7.120;2023-03-01T01:06:36;102127.81;;;0.18;59.12
48015;BME280;33780;51.034;7.120;2023-03-01T01:09:04;102123.47;;;0.15;58.93
48015;BME280;33780;51.034;7.120;2023-03-01T01:11:30;102119.97;;;0.15;59.02
48015;BME280;33780;51.034;7.120;2023-03-01T01:13:56;102116.47;;;0.14;59.72
48015;BME280;33780;51.034;7.120;2023-03-01T01:16:23;102113.88;;;0.13;59.07
48015;BME280;33780;51.034;7.120;2023-03-01T01:18:49;102116.53;;;0.11;59.12
48015;BME280;33780;51.034;7.120;2023-03-01T01:21:18;102106.09;;;0.08;59.25
48015;BME280;33780;51.034;7.120;2023-03-01T01:23:45;102104.34;;;0.07;59.14
48015;BME280;33780;51.034;7.120;2023-03-01T01:26:13;102103.56;;;0.04;59.62
48015;BME280;33780;51.034;7.120;2023-03-01T01:28:39;102098.34;;;0.01;59.71
48015;BME280;33780;51.034;7.120;2023-03-01T01:31:05;102094.00;;;-0.02;59.87
48015;BME280;33780;51.034;7.120;2023-03-01T01:33:30;102090.53;;;-0.04;59.78
48015;BME280;33780;51.034;7.120;2023-03-01T01:35:56;102081.84;;;-0.08;59.69
48015;BME280;33780;51.034;7.120;2023-03-01T01:38:21;102080.97;;;-0.08;59.75
48015;BME280;33780;51.034;7.120;2023-03-01T01:40:48;102079.28;;;-0.11;59.94
48015;BME280;33780;51.034;7.120;2023-03-01T01:43:28;102079.34;;;-0.14;59.57
48015;BME280;33780;51.034;7.120;2023-03-01T01:46:01;102083.75;;;-0.16;59.19
48015;BME280;33780;51.034;7.120;2023-03-01T01:48:52;102071.53;;;-0.20;60.10
48015;BME280;33780;51.034;7.120;2023-03-01T01:51:23;102068.97;;;-0.23;59.90
48015;BME280;33780;51.034;7.120;2023-03-01T01:53:55;102067.25;;;-0.24;59.87
48015;BME280;33780;51.034;7.120;2023-03-01T01:56:24;102068.16;;;-0.25;59.64
48015;BME280;33780;51.034;7.120;2023-03-01T01:58:50;102054.16;;;-0.27;59.87
48015;BME280;33780;51.034;7.120;2023-03-01T02:01:16;102057.72;;;-0.29;59.54
48015;BME280;33780;51.034;7.120;2023-03-01T02:03:43;102048.09;;;-0.31;59.54
48015;BME280;33780;51.034;7.120;2023-03-01T02:06:21;102049.03;;;-0.33;59.66
48015;BME280;33780;51.034;7.120;2023-03-01T02:08:49;102050.78;;;-0.34;59.81
48015;BME280;33780;51.034;7.120;2023-03-01T02:11:17;102049.06;;;-0.36;59.29
48015;BME280;33780;51.034;7.120;2023-03-01T02:13:44;102054.34;;;-0.38;59.84
48015;BME280;33780;51.034;7.120;2023-03-01T02:16:14;102053.53;;;-0.40;59.62
48015;BME280;33780;51.034;7.120;2023-03-01T02:18:41;102043.91;;;-0.41;59.73
48015;BME280;33780;51.034;7.120;2023-03-01T02:21:30;102044.88;;;-0.45;59.55
48015;BME280;33780;51.034;7.120;2023-03-01T02:24:07;102049.28;;;-0.47;59.99
48015;BME280;33780;51.034;7.120;2023-03-01T02:26:45;102055.47;;;-0.49;59.98
48015;BME280;33780;51.034;7.120;2023-03-01T02:29:12;102054.63;;;-0.51;59.67
48015;BME280;33780;51.034;7.120;2023-03-01T02:31:38;102054.66;;;-0.54;59.75
48015;BME280;33780;51.034;7.120;2023-03-01T02:34:16;102057.34;;;-0.57;59.85
48015;BME280;33780;51.034;7.120;2023-03-01T02:36:57;102055.66;;;-0.60;59.66
48015;BME280;33780;51.034;7.120;2023-03-01T02:39:29;102050.44;;;-0.62;59.71
48015;BME280;33780;51.034;7.120;2023-03-01T02:41:56;102053.09;;;-0.63;59.95
48015;BME280;33780;51.034;7.120;2023-03-01T02:44:22;102054.03;;;-0.66;59.69
48015;BME280;33780;51.034;7.120;2023-03-01T02:46:51;102050.56;;;-0.68;59.98
48015;BME280;33780;51.034;7.120;2023-03-01T02:49:20;102042.69;;;-0.69;59.83
48015;BME280;33780;51.034;7.120;2023-03-01T02:54:28;102045.34;;;-0.72;60.48
48015;BME280;33780;51.034;7.120;2023-03-01T02:56:55;102034.88;;;-0.74;60.29
48015;BME280;33780;51.034;7.120;2023-03-01T02:59:24;102035.78;;;-0.75;60.29
48015;BME280;33780;51.034;7.120;2023-03-01T03:01:52;102031.41;;;-0.76;60.66
48015;BME280;33780;51.034;7.120;2023-03-01T03:04:18;102036.69;;;-0.77;60.29
48015;BME280;33780;51.034;7.120;2023-03-01T03:06:45;102024.44;;;-0.78;60.02
48015;BME280;33780;51.034;7.120;2023-03-01T03:09:11;102021.88;;;-0.81;60.06
48015;BME280;33780;51.034;7.120;2023-03-01T03:11:37;102016.63;;;-0.81;60.60
48015;BME280;33780;51.034;7.120;2023-03-01T03:14:04;102021.06;;;-0.83;60.38
48015;BME280;33780;51.034;7.120;2023-03-01T03:16:30;102006.22;;;-0.86;60.15
48015;BME280;33780;51.034;7.120;2023-03-01T03:18:55;102008.00;;;-0.88;60.01
48015;BME280;33780;51.034;7.120;2023-03-01T03:21:30;102012.38;;;-0.88;59.96
48015;BME280;33780;51.034;7.120;2023-03-01T03:23:55;102010.66;;;-0.91;60.33
48015;BME280;33780;51.034;7.120;2023-03-01T03:26:20;102002.81;;;-0.93;60.55
48015;BME280;33780;51.034;7.120;2023-03-01T03:28:45;101995.84;;;-0.95;60.56
48015;BME280;33780;51.034;7.120;2023-03-01T03:31:11;102003.72;;;-0.95;60.52
48015;BME280;33780;51.034;7.120;2023-03-01T03:33:37;102005.53;;;-0.97;60.48
48015;BME280;33780;51.034;7.120;2023-03-01T03:36:03;102007.31;;;-0.99;60.53
48015;BME280;33780;51.034;7.120;2023-03-01T03:38:28;102006.44;;;-1.00;60.28
48015;BME280;33780;51.034;7.120;2023-03-01T03:41:02;102006.47;;;-1.01;60.82
48015;BME280;33780;51.034;7.120;2023-03-01T03:43:30;102011.72;;;-1.01;60.91
48015;BME280;33780;51.034;7.120;2023-03-01T03:45:56;101999.50;;;-1.02;61.01
48015;BME280;33780;51.034;7.120;2023-03-01T03:48:24;102003.88;;;-1.03;60.84
48015;BME280;33780;51.034;7.120;2023-03-01T03:50:52;102000.38;;;-1.03;61.04
48015;BME280;33780;51.034;7.120;2023-03-01T03:53:18;101997.78;;;-1.05;61.10
48015;BME280;33780;51.034;7.120;2023-03-01T03:55:44;101998.66;;;-1.04;61.42
48015;BME280;33780;51.034;7.120;2023-03-01T03:58:10;101994.28;;;-1.05;61.15
48015;BME280;33780;51.034;7.120;2023-03-01T04:00:41;101982.06;;;-1.06;61.07
48015;BME280;33780;51.034;7.120;2023-03-01T04:03:08;101989.06;;;-1.07;61.19
48015;BME280;33780;51.034;7.120;2023-03-01T04:05:34;101980.31;;;-1.07;60.88
48015;BME280;33780;51.034;7.120;2023-03-01T04:08:00;101981.19;;;-1.07;61.36
48015;BME280;33780;51.034;7.120;2023-03-01T04:10:35;101977.69;;;-1.07;61.35
48015;BME280;33780;51.034;7.120;2023-03-01T04:13:02;101974.16;;;-1.08;61.36
48015;BME280;33780;51.034;7.120;2023-03-01T04:15:27;101975.06;;;-1.09;61.43
48015;BME280;33780;51.034;7.120;2023-03-01T04:17:53;101975.97;;;-1.10;61.49
48015;BME280;33780;51.034;7.120;2023-03-01T04:20:24;101974.25;;;-1.12;61.88
48015;BME280;33780;51.034;7.120;2023-03-01T04:22:58;101974.28;;;-1.14;61.98
48015;BME280;33780;51.034;7.120;2023-03-01T04:25:24;101973.44;;;-1.16;62.05
48015;BME280;33780;51.034;7.120;2023-03-01T04:27:50;101963.88;;;-1.18;62.72
48015;BME280;33780;51.034;7.120;2023-03-01T04:30:15;101970.03;;;-1.19;62.23
48015;BME280;33780;51.034;7.120;2023-03-01T04:32:40;101980.53;;;-1.19;61.88
48015;BME280;33780;51.034;7.120;2023-03-01T04:35:06;101967.41;;;-1.21;62.04
48015;BME280;33780;51.034;7.120;2023-03-01T04:37:32;101971.81;;;-1.22;61.60
48015;BME280;33780;51.034;7.120;2023-03-01T04:39:58;101971.81;;;-1.22;61.82
48015;BME280;33780;51.034;7.120;2023-03-01T04:42:23;101968.31;;;-1.22;62.06
48015;BME280;33780;51.034;7.120;2023-03-01T04:44:48;101965.72;;;-1.24;61.63
48015;BME280;33780;51.034;7.120;2023-03-01T04:47:16;101971.00;;;-1.25;61.86
48015;BME280;33780;51.034;7.120;2023-03-01T04:49:41;101959.66;;;-1.29;61.63
48015;BME280;33780;51.034;7.120;2023-03-01T04:52:07;101963.19;;;-1.30;61.73
48015;BME280;33780;51.034;7.120;2023-03-01T04:54:33;101962.34;;;-1.32;61.96
48015;BME280;33780;51.034;7.120;2023-03-01T04:56:59;101967.63;;;-1.33;61.64
48015;BME280;33780;51.034;7.120;2023-03-01T04:59:25;101959.78;;;-1.35;61.84
48015;BME280;33780;51.034;7.120;2023-03-01T05:01:51;101963.28;;;-1.36;61.65
48015;BME280;33780;51.034;7.120;2023-03-01T05:04:16;101963.31;;;-1.37;61.26
48015;BME280;33780;51.034;7.120;2023-03-01T05:06:41;101957.22;;;-1.39;61.22
48015;BME280;33780;51.034;7.120;2023-03-01T05:09:07;101965.13;;;-1.41;61.65
48015;BME280;33780;51.034;7.120;2023-03-01T05:11:32;101963.41;;;-1.42;61.65
48015;BME280;33780;51.034;7.120;2023-03-01T05:14:01;101955.56;;;-1.43;61.54
48015;BME280;33780;51.034;7.120;2023-03-01T05:16:27;101955.56;;;-1.46;61.45
48015;BME280;33780;51.034;7.120;2023-03-01T05:18:52;101959.09;;;-1.47;61.44
48015;BME280;33780;51.034;7.120;2023-03-01T05:21:17;101963.50;;;-1.49;61.25
48015;BME280;33780;51.034;7.120;2023-03-01T05:23:44;101966.16;;;-1.51;61.66
48015;BME280;33780;51.034;7.120;2023-03-01T05:26:09;101960.94;;;-1.53;62.02
48015;BME280;33780;51.034;7.120;2023-03-01T05:28:44;101963.63;;;-1.56;62.01
48015;BME280;33780;51.034;7.120;2023-03-01T05:31:09;101959.25;;;-1.57;61.46
48015;BME280;33780;51.034;7.120;2023-03-01T05:33:39;101963.66;;;-1.59;61.49
48015;BME280;33780;51.034;7.120;2023-03-01T05:36:09;101966.28;;;-1.59;62.21
48015;BME280;33780;51.034;7.120;2023-03-01T05:38:37;101961.06;;;-1.62;61.62
48015;BME280;33780;51.034;7.120;2023-03-01T05:41:02;101967.22;;;-1.63;62.02
48015;BME280;33780;51.034;7.120;2023-03-01T05:43:31;101968.09;;;-1.64;61.93
48015;BME280;33780;51.034;7.120;2023-03-01T05:45:59;101966.38;;;-1.65;61.67
48015;BME280;33780;51.034;7.120;2023-03-01T05:48:25;101958.53;;;-1.66;61.65
48015;BME280;33780;51.034;7.120;2023-03-01T05:50:51;101958.56;;;-1.68;61.96
48015;BME280;33780;51.034;7.120;2023-03-01T05:53:18;101965.56;;;-1.70;61.77
48015;BME280;33780;51.034;7.120;2023-03-01T05:55:46;101965.56;;;-1.70;61.68
48015;BME280;33780;51.034;7.120;2023-03-01T05:58:14;101959.50;;;-1.72;61.71
48015;BME280;33780;51.034;7.120;2023-03-01T06:00:42;101959.53;;;-1.75;62.18
48015;BME280;33780;51.034;7.120;2023-03-01T06:03:12;101953.47;;;-1.78;62.40
48015;BME280;33780;51.034;7.120;2023-03-01T06:05:42;101950.00;;;-1.79;61.82
48015;BME280;33780;51.034;7.120;2023-03-01T06:08:10;101948.28;;;-1.83;62.00
48015;BME280;33780;51.034;7.120;2023-03-01T06:10:39;101949.22;;;-1.87;62.28
48015;BME280;33780;51.034;7.120;2023-03-01T06:13:07;101946.66;;;-1.90;62.00
48015;BME280;33780;51.034;7.120;2023-03-01T06:15:33;101951.91;;;-1.92;62.26
48015;BME280;33780;51.034;7.120;2023-03-01T06:17:58;101944.09;;;-1.95;62.32
48015;BME280;33780;51.034;7.120;2023-03-01T06:20:26;101951.09;;;-1.95;62.22
48015;BME280;33780;51.034;7.120;2023-03-01T06:22:52;101954.59;;;-1.95;62.28
48015;BME280;33780;51.034;7.120;2023-03-01T06:25:26;101954.59;;;-1.95;62.35
48015;BME280;33780;51.034;7.120;2023-03-01T06:27:52;101958.06;;;-1.93;62.21
48015;BME280;33780;51.034;7.120;2023-03-01T06:30:19;101955.47;;;-1.94;62.17
48015;BME280;33780;51.034;7.120;2023-03-01T06:32:45;101953.69;;;-1.94;62.23
48015;BME280;33780;51.034;7.120;2023-03-01T06:35:12;101956.31;;;-1.94;62.22
48015;BME280;33780;51.034;7.120;2023-03-01T06:37:39;101957.19;;;-1.93;62.48
48015;BME280;33780;51.034;7.120;2023-03-01T06:40:06;101951.91;;;-1.92;62.33
48015;BME280;33780;51.034;7.120;2023-03-01T06:42:35;101954.53;;;-1.92;62.63
48015;BME280;33780;51.034;7.120;2023-03-01T06:45:01;101949.31;;;-1.92;62.39
48015;BME280;33780;51.034;7.120;2023-03-01T06:47:26;101951.03;;;-1.91;62.26
48015;BME280;33780;51.034;7.120;2023-03-01T06:49:52;101944.91;;;-1.90;62.52
48015;BME280;33780;51.034;7.120;2023-03-01T06:52:17;101944.91;;;-1.90;62.63
48015;BME280;33780;51.034;7.120;2023-03-01T06:54:43;101940.50;;;-1.88;62.32
48015;BME280;33780;51.034;7.120;2023-03-01T06:57:08;101946.59;;;-1.87;62.69
48015;BME280;33780;51.034;7.120;2023-03-01T06:59:34;101941.34;;;-1.87;63.01
48015;BME280;33780;51.034;7.120;2023-03-01T07:01:59;101949.19;;;-1.86;62.72
48015;BME280;33780;51.034;7.120;2023-03-01T07:04:25;101949.16;;;-1.84;62.71
48015;BME280;33780;51.034;7.120;2023-03-01T07:06:53;101943.94;;;-1.84;62.78
48015;BME280;33780;51.034;7.120;2023-03-01T07:09:21;101941.28;;;-1.83;63.08
48015;BME280;33780;51.034;7.120;2023-03-01T07:11:47;101942.13;;;-1.82;62.97
48015;BME280;33780;51.034;7.120;2023-03-01T07:14:13;101950.88;;;-1.82;63.27
48015;BME280;33780;51.034;7.120;2023-03-01T07:16:38;101934.25;;;-1.80;62.93
48015;BME280;33780;51.034;7.120;2023-03-01T07:19:03;101933.34;;;-1.78;63.43
48015;BME280;33780;51.034;7.120;2023-03-01T07:21:30;101931.56;;;-1.76;63.36
48015;BME280;33780;51.034;7.120;2023-03-01T07:23:56;101926.31;;;-1.74;63.02
48015;BME280;33780;51.034;7.120;2023-03-01T07:26:21;101928.88;;;-1.71;63.37
48015;BME280;33780;51.034;7.120;2023-03-01T07:28:46;101932.34;;;-1.71;63.47
48015;BME280;33780;51.034;7.120;2023-03-01T07:31:12;101928.84;;;-1.70;63.54
48015;BME280;33780;51.034;7.120;2023-03-01T07:33:37;101927.94;;;-1.69;63.62
48015;BME280;33780;51.034;7.120;2023-03-01T07:36:09;101933.19;;;-1.69;63.63
48015;BME280;33780;51.034;7.120;2023-03-01T07:38:34;101929.63;;;-1.65;63.74
48015;BME280;33780;51.034;7.120;2023-03-01T07:41:01;101926.09;;;-1.61;63.57
48015;BME280;33780;51.034;7.120;2023-03-01T07:43:28;101930.38;;;-1.57;63.68
48015;BME280;33780;51.034;7.120;2023-03-01T07:45:53;101932.97;;;-1.54;63.57
48015;BME280;33780;51.034;7.120;2023-03-01T07:48:18;101934.59;;;-1.48;63.52
48015;BME280;33780;51.034;7.120;2023-03-01T07:50:44;101925.78;;;-1.44;64.90
48015;BME280;33780;51.034;7.120;2023-03-01T07:53:09;101927.50;;;-1.41;64.35
48015;BME280;33780;51.034;7.120;2023-03-01T07:55:35;101926.53;;;-1.36;64.11
48015;BME280;33780;51.034;7.120;2023-03-01T07:58:01;101926.41;;;-1.30;63.91
48015;BME280;33780;51.034;7.120;2023-03-01T08:00:26;101927.22;;;-1.25;63.87
48015;BME280;33780;51.034;7.120;2023-03-01T08:02:52;101934.16;;;-1.20;64.67
48015;BME280;33780;51.034;7.120;2023-03-01T08:05:17;101931.44;;;-1.16;64.61
48015;BME280;33780;51.034;7.120;2023-03-01T08:07:43;101916.44;;;-1.11;64.52
48015;BME280;33780;51.034;7.120;2023-03-01T08:10:09;101915.50;;;-1.05;64.39
48015;BME280;33780;51.034;7.120;2023-03-01T08:12:34;101917.09;;;-0.98;64.57
48015;BME280;33780;51.034;7.120;2023-03-01T08:14:59;101909.13;;;-0.94;64.83
48015;BME280;33780;51.034;7.120;2023-03-01T08:17:25;101910.75;;;-0.86;64.50
48015;BME280;33780;51.034;7.120;2023-03-01T08:19:50;101910.63;;;-0.80;64.46
48015;BME280;33780;51.034;7.120;2023-03-01T08:22:16;101906.09;;;-0.74;64.18
48015;BME280;33780;51.034;7.120;2023-03-01T08:24:41;101901.59;;;-0.67;64.87
48015;BME280;33780;51.034;7.120;2023-03-01T08:27:06;101904.94;;;-0.61;64.80
48015;BME280;33780;51.034;7.120;2023-03-01T08:29:33;101909.22;;;-0.55;64.49
48015;BME280;33780;51.034;7.120;2023-03-01T08:32:01;101908.25;;;-0.49;64.34
48015;BME280;33780;51.034;7.120;2023-03-01T08:34:26;101908.97;;;-0.43;64.50
48015;BME280;33780;51.034;7.120;2023-03-01T08:36:55;101907.91;;;-0.34;64.49
48015;BME280;33780;51.034;7.120;2023-03-01T08:39:26;101912.13;;;-0.27;64.39
48015;BME280;33780;51.034;7.120;2023-03-01T08:41:52;101910.22;;;-0.20;64.52
48015;BME280;33780;51.034;7.120;2023-03-01T08:44:20;101913.56;;;-0.12;64.14
48015;BME280;33780;51.034;7.120;2023-03-01T08:46:51;101914.25;;;-0.04;64.02
48015;BME280;33780;51.034;7.120;2023-03-01T08:49:21;101908.81;;;0.04;63.97
48015;BME280;33780;51.034;7.120;2023-03-01T08:51:47;101906.00;;;0.11;63.90
48015;BME280;33780;51.034;7.120;2023-03-01T08:54:21;101912.00;;;0.16;64.18
48015;BME280;33780;51.034;7.120;2023-03-01T08:56:49;101910.06;;;0.24;63.79
48015;BME280;33780;51.034;7.120;2023-03-01T08:59:21;101903.75;;;0.32;63.91
48015;BME280;33780;51.034;7.120;2023-03-01T09:01:46;101901.88;;;0.37;64.11
48015;BME280;33780;51.034;7.120;2023-03-01T09:04:15;101900.00;;;0.42;63.38
48015;BME280;33780;51.034;7.120;2023-03-01T09:06:41;101900.66;;;0.50;63.34
48015;BME280;33780;51.034;7.120;2023-03-01T09:09:15;101898.78;;;0.55;63.34
48015;BME280;33780;51.034;7.120;2023-03-01T09:11:47;101897.75;;;0.60;63.32
48015;BME280;33780;51.034;7.120;2023-03-01T09:14:23;101907.22;;;0.68;62.71
48015;BME280;33780;51.034;7.120;2023-03-01T09:16:49;101894.81;;;0.73;62.84
48015;BME280;33780;51.034;7.120;2023-03-01T09:19:19;101901.66;;;0.80;62.38
48015;BME280;33780;51.034;7.120;2023-03-01T09:21:50;101893.63;;;0.84;62.47
48015;BME280;33780;51.034;7.120;2023-03-01T09:24:23;101891.72;;;0.89;61.93
48015;BME280;33780;51.034;7.120;2023-03-01T09:26:53;101898.59;;;0.95;62.14
48015;BME280;33780;51.034;7.120;2023-03-01T09:29:22;101887.03;;;1.01;62.03
48015;BME280;33780;51.034;7.120;2023-03-01T09:31:48;101890.38;;;1.06;61.82
48015;BME280;33780;51.034;7.120;2023-03-01T09:34:13;101885.00;;;1.10;61.51
48015;BME280;33780;51.034;7.120;2023-03-01T09:36:41;101876.91;;;1.16;61.32
48015;BME280;33780;51.034;7.120;2023-03-01T09:42:34;101875.66;;;1.30;60.96
48015;BME280;33780;51.034;7.120;2023-03-01T09:45:06;101873.81;;;1.33;59.41
48015;BME280;33780;51.034;7.120;2023-03-01T09:47:36;101868.34;;;1.39;59.95
48015;BME280;33780;51.034;7.120;2023-03-01T09:50:11;101870.88;;;1.44;60.00
48015;BME280;33780;51.034;7.120;2023-03-01T09:52:43;101861.94;;;1.48;59.95
48015;BME280;33780;51.034;7.120;2023-03-01T09:55:13;101864.38;;;1.54;60.06
48015;BME280;33780;51.034;7.120;2023-03-01T09:58:41;101853.63;;;1.60;60.06
48015;BME280;33780;51.034;7.120;2023-03-01T10:00:47;101855.25;;;1.66;60.43
48015;BME280;33780;51.034;7.120;2023-03-01T10:03:51;101866.31;;;1.77;60.11
48015;BME280;33780;51.034;7.120;2023-03-01T10:12:35;101857.78;;;1.97;60.53
48015;BME280;33780;51.034;7.120;2023-03-01T10:15:59;101855.78;;;2.05;59.79
48015;BME280;33780;51.034;7.120;2023-03-01T10:18:29;101856.41;;;2.11;60.44
48015;BME280;33780;51.034;7.120;2023-03-01T10:24:24;101850.84;;;2.21;59.00
48015;BME280;33780;51.034;7.120;2023-03-01T10:26:57;101836.53;;;2.28;58.91
48015;BME280;33780;51.034;7.120;2023-03-01T10:29:34;101831.94;;;2.33;58.94
48015;BME280;33780;51.034;7.120;2023-03-01T10:32:03;101823.72;;;2.42;59.50
48015;BME280;33780;51.034;7.120;2023-03-01T10:34:33;101819.06;;;2.49;59.38
48015;BME280;33780;51.034;7.120;2023-03-01T10:37:16;101817.97;;;2.56;59.32
48015;BME280;33780;51.034;7.120;2023-03-01T10:40:08;101812.41;;;2.63;59.58
48015;BME280;33780;51.034;7.120;2023-03-01T10:42:39;101816.59;;;2.69;58.76
48015;BME280;33780;51.034;7.120;2023-03-01T10:45:34;101819.91;;;2.76;58.21
48015;BME280;33780;51.034;7.120;2023-03-01T10:50:32;101798.41;;;2.85;58.41
48015;BME280;33780;51.034;7.120;2023-03-01T10:53:00;101797.41;;;2.89;57.31
48015;BME280;33780;51.034;7.120;2023-03-01T10:55:32;101786.59;;;2.95;58.35
48015;BME280;33780;51.034;7.120;2023-03-01T11:01:05;101772.91;;;3.07;58.12
48015;BME280;33780;51.034;7.120;2023-03-01T11:03:36;101778.81;;;3.14;58.42
48015;BME280;33780;51.034;7.120;2023-03-01T11:11:17;101764.22;;;3.27;56.81
48015;BME280;33780;51.034;7.120;2023-03-01T11:14:01;101753.38;;;3.33;56.64
48015;BME280;33780;51.034;7.120;2023-03-01T11:16:31;101747.16;;;3.34;56.37
48015;BME280;33780;51.034;7.120;2023-03-01T11:21:42;101741.47;;;3.45;56.68
48015;BME280;33780;51.034;7.120;2023-03-01T11:24:12;101750.06;;;3.50;56.46
48015;BME280;33780;51.034;7.120;2023-03-01T11:29:37;101741.66;;;3.62;56.84
48015;BME280;33780;51.034;7.120;2023-03-01T11:32:15;101737.88;;;3.68;56.64
48015;BME280;33780;51.034;7.120;2023-03-01T11:40:26;101727.66;;;3.80;55.04
48015;BME280;33780;51.034;7.120;2023-03-01T11:43:11;101716.81;;;3.86;55.67
48015;BME280;33780;51.034;7.120;2023-03-01T12:20:40;101664.63;;;4.68;51.67
48015;BME280;33780;51.034;7.120;2023-03-01T12:23:26;101665.25;;;4.73;51.12
48015;BME280;33780;51.034;7.120;2023-03-01T12:26:34;101655.94;;;4.83;52.14
48015;BME280;33780;51.034;7.120;2023-03-01T12:29:25;101651.28;;;4.89;51.54
48015;BME280;33780;51.034;7.120;2023-03-01T12:49:55;101624.97;;;5.39;50.78
48015;BME280;33780;51.034;7.120;2023-03-01T12:52:37;101626.44;;;5.44;49.59
48015;BME280;33780;51.034;7.120;2023-03-01T12:55:16;101623.72;;;5.46;49.72
48015;BME280;33780;51.034;7.120;2023-03-01T12:57:51;101621.59;;;5.53;50.68
48015;BME280;33780;51.034;7.120;2023-03-01T13:06:21;101609.97;;;5.72;49.48
48015;BME280;33780;51.034;7.120;2023-03-01T13:09:01;101595.75;;;5.73;48.21
48015;BME280;33780;51.034;7.120;2023-03-01T13:11:30;101597.41;;;5.76;49.47
48015;BME280;33780;51.034;7.120;2023-03-01T13:14:42;101590.66;;;5.86;49.42
48015;BME280;33780;51.034;7.120;2023-03-01T13:17:33;101585.78;;;5.96;48.52
48015;BME280;33780;51.034;7.120;2023-03-01T13:20:17;101587.06;;;6.04;49.40
48015;BME280;33780;51.034;7.120;2023-03-01T13:23:06;101579.66;;;6.11;49.94
48015;BME280;33780;51.034;7.120;2023-03-01T13:31:02;101584.13;;;6.26;48.40
48015;BME280;33780;51.034;7.120;2023-03-01T13:35:55;101579.00;;;6.39;47.56
48015;BME280;33780;51.034;7.120;2023-03-01T13:38:47;101579.59;;;6.44;45.26
48015;BME280;33780;51.034;7.120;2023-03-01T13:41:31;101578.50;;;6.48;45.94
48015;BME280;33780;51.034;7.120;2023-03-01T13:46:50;101560.81;;;6.63;46.81
48015;BME280;33780;51.034;7.120;2023-03-01T13:49:19;101569.44;;;6.68;45.05
48015;BME280;33780;51.034;7.120;2023-03-01T13:51:47;101564.69;;;6.73;45.62
48015;BME280;33780;51.034;7.120;2023-03-01T13:54:14;101558.94;;;6.81;46.82
48015;BME280;33780;51.034;7.120;2023-03-01T13:56:40;101552.59;;;6.83;46.14
48015;BME280;33780;51.034;7.120;2023-03-01T13:59:14;101557.56;;;6.89;47.64
48015;BME280;33780;51.034;7.120;2023-03-01T14:01:39;101551.13;;;6.93;45.51
48015;BME280;33780;51.034;7.120;2023-03-01T14:04:23;101556.94;;;7.00;45.85
48015;BME280;33780;51.034;7.120;2023-03-01T14:06:49;101566.47;;;7.04;46.65
48015;BME280;33780;51.034;7.120;2023-03-01T14:09:33;101563.44;;;7.10;45.83
48015;BME280;33780;51.034;7.120;2023-03-01T14:12:29;101567.66;;;7.14;47.11
48015;BME280;33780;51.034;7.120;2023-03-01T14:18:09;101554.16;;;7.17;46.50
48015;BME280;33780;51.034;7.120;2023-03-01T14:20:41;101550.38;;;7.21;47.18
48015;BME280;33780;51.034;7.120;2023-03-01T14:23:15;101554.66;;;7.24;47.77
48015;BME280;33780;51.034;7.120;2023-03-01T14:25:59;101543.44;;;7.19;45.90
48015;BME280;33780;51.034;7.120;2023-03-01T14:28:27;101546.09;;;7.19;47.64
48015;BME280;33780;51.034;7.120;2023-03-01T14:31:25;101539.75;;;7.21;47.36
48015;BME280;33780;51.034;7.120;2023-03-01T14:34:00;101532.44;;;7.25;47.98
48015;BME280;33780;51.034;7.120;2023-03-01T14:36:33;101529.66;;;7.26;47.59
48015;BME280;33780;51.034;7.120;2023-03-01T14:39:24;101521.69;;;7.26;47.72
48015;BME280;33780;51.034;7.120;2023-03-01T14:41:50;101519.88;;;7.27;47.78
48015;BME280;33780;51.034;7.120;2023-03-01T14:44:20;101513.69;;;7.26;47.42
48015;BME280;33780;51.034;7.120;2023-03-01T14:46:52;101508.38;;;7.26;45.94
48015;BME280;33780;51.034;7.120;2023-03-01T14:49:27;101502.84;;;7.30;47.73
48015;BME280;33780;51.034;7.120;2023-03-01T14:52:07;101499.44;;;7.27;46.30
48015;BME280;33780;51.034;7.120;2023-03-01T14:54:42;101506.66;;;7.25;46.47
48015;BME280;33780;51.034;7.120;2023-03-01T14:57:20;101509.03;;;7.30;47.23
48015;BME280;33780;51.034;7.120;2023-03-01T14:59:51;101498.41;;;7.30;45.81